Airfield :
LOGIN :

Register | Disclaimer

   EN    FR    IT 

 










Legend :    VFR   Marginal VFR   IFR   Intensive IFR   Very Intensive IFR
Visi :
Ceiling :
>= 8 km
>= 3000ft
5 to 8 km
1000 to 3000 ft
1500m to 5 km
500 to 1000 ft
800 to 1500m
200 to 500 ft
< 800m
< 200 ft
Symbols :   Thunderstorms  Fog  Heavy snow  Heavy precipitations  Wind > 20 kt
SIGMETs :     Misc.  Thunderstorms  Icing  Turbulence  Mountain Waves  Volcanic Ashes







- Airport Elevation : 0 ft


ENSL - Sleipner A Platform

CURRENT METAR :
  • 230710Z 19034KT 1000 BR OVC004 08/07 Q1029 W05/S4

EXPIRED METARs :
  • 230650Z 19034KT 0500 FG VV003 08/07 Q1029 W05/S4
  • 230620Z 17036KT 0400 FG VV002 08/07 Q1028 W05/S4
  • 230550Z 17036KT 0400 FG VV002 08/07 Q1028 W05/S5
  • 230520Z 18036KT 0200 FG VV002 07/07 Q1029 W05/S4
  • 230450Z 18034KT 0200 FG VV002 07/07 Q1030 W05/S4

TAF TAF ENSL
Valid from the 23 at 06:00 until the 23 at 15:00 UTC


230500Z 2306/2315 18035KT 0200 FG VV002
BECMG 2307/2309 9999 NSW SCT012
TEMPO 2307/2315 BKN009
No reported NOTAMs for that airfield.
3 SIGMETs reported for the Scottish FIR (EGPX) :
 
Severe turbulence
EGPX SIGMET 03 VALID 230700/231100 EGRR
EGPX SCOTTISH FIR SEV TURB FCST WI N5525 W00720 - N5520 W00815 - N5445 W00900 - N5434 W01000 - N6100 W01000 - N6100 W00300 - N5525 W00720 SFC/FL060 MOV N 40KT NC=
Severe turbulence
EGPX SIGMET 02 VALID 230300/230700 EGRR
EGPX SCOTTISH FIR SEV TURB FCST NW OF LINE N6100 W00400 - N5520 W00655 SFC/FL060 STNR NC=
Severe mountain waves
EGPX SIGMET 01 VALID 230300/230700 EGRR
EGPX SCOTTISH FIR SEV MTW FCST WI N5500 W00530 - N5406 W00630 - N5425 W00810 - N5520 W00655 - N5525 W00720 - N5520 W00816 - N5900 W00700 - N6100 W00030 - N5530 W00230 - N5500 W00530 FL030/230 STNR NC=



MET'MAP, your aeronautical weather chart ! - Copyright ORBIFLY December 2007 - Disclaimer

ORBIFLY MET'MAP TEAM :

Programming & Development : Alexandra Zaïnal
Concept & Development : Baudouin d'Aumeries
Co-Development & Prog : Marc-Olivier Méhu
Technical & hardware support : Manuel Goepfert

Contact : metmap@orbifly.com




SOURCES & CREDITS :

   NOAA